createdAt,value
2023-05-09T00:01:13.210Z,15.50
2023-05-09T00:03:49.372Z,15.50
2023-05-09T00:07:06.165Z,15.50
2023-05-09T00:09:38.505Z,15.50
2023-05-09T00:12:14.415Z,15.40
2023-05-09T00:14:52.354Z,15.40
2023-05-09T00:17:24.623Z,15.30
2023-05-09T00:20:02.245Z,15.30
2023-05-09T00:22:34.782Z,15.20
2023-05-09T00:25:18.454Z,15.20
2023-05-09T00:27:54.455Z,15.20
2023-05-09T00:30:30.777Z,15.10
2023-05-09T00:33:06.678Z,15.10
2023-05-09T00:35:45.911Z,15.10
2023-05-09T00:38:21.982Z,15.00
2023-05-09T00:40:54.849Z,15.00
2023-05-09T00:43:30.650Z,15.00
2023-05-09T00:46:04.202Z,15.00
2023-05-09T00:48:37.013Z,15.00
2023-05-09T00:51:12.093Z,14.90
2023-05-09T00:53:48.713Z,14.90
2023-05-09T00:56:25.312Z,14.90
2023-05-09T00:59:02.056Z,14.90
2023-05-09T01:01:34.312Z,14.90
2023-05-09T01:04:07.920Z,14.90
2023-05-09T01:06:49.213Z,14.90
2023-05-09T01:09:29.965Z,14.90
2023-05-09T01:12:11.992Z,14.90
2023-05-09T01:14:54.770Z,14.90
2023-05-09T01:17:37.059Z,14.90
2023-05-09T01:20:17.838Z,14.90
2023-05-09T01:23:11.100Z,14.90
2023-05-09T01:25:55.104Z,14.90
2023-05-09T01:28:37.047Z,14.90
2023-05-09T01:31:13.584Z,14.90
2023-05-09T01:33:51.873Z,14.90
2023-05-09T01:36:30.217Z,14.90
2023-05-09T01:39:04.494Z,14.90
2023-05-09T01:41:39.073Z,14.90
2023-05-09T01:44:14.029Z,15.00
2023-05-09T01:46:51.024Z,15.00
2023-05-09T01:49:24.120Z,15.00
2023-05-09T01:51:59.195Z,14.90
2023-05-09T01:54:33.775Z,14.90
2023-05-09T01:57:08.872Z,15.00
2023-05-09T01:59:45.398Z,15.00
2023-05-09T02:02:21.333Z,15.00
2023-05-09T02:04:56.053Z,15.00
2023-05-09T02:07:30.357Z,15.00
2023-05-09T02:10:05.164Z,15.10
2023-05-09T02:12:38.234Z,15.00
2023-05-09T02:15:11.944Z,15.10
2023-05-09T02:17:47.113Z,15.10
2023-05-09T02:20:19.828Z,15.10
2023-05-09T02:22:52.445Z,15.10
2023-05-09T02:25:25.618Z,15.10
2023-05-09T02:27:58.416Z,15.10
2023-05-09T02:30:37.011Z,15.10
2023-05-09T02:33:14.011Z,15.20
2023-05-09T02:35:47.032Z,15.20
2023-05-09T02:38:20.608Z,15.20
2023-05-09T02:40:53.628Z,15.20
2023-05-09T02:43:25.864Z,15.20
2023-05-09T02:45:58.062Z,15.20
2023-05-09T02:48:33.280Z,15.20
2023-05-09T02:51:06.080Z,15.20
2023-05-09T02:53:38.223Z,15.20
2023-05-09T02:56:11.558Z,15.30
2023-05-09T02:58:51.595Z,15.30
2023-05-09T03:01:24.219Z,15.30
2023-05-09T03:03:59.386Z,15.30
2023-05-09T03:06:32.195Z,15.30
2023-05-09T03:09:04.953Z,15.30
2023-05-09T03:11:37.462Z,15.30
2023-05-09T03:14:11.159Z,15.40
2023-05-09T03:16:43.717Z,15.40
2023-05-09T03:19:18.591Z,15.40
2023-05-09T03:21:51.624Z,15.40
2023-05-09T03:24:24.015Z,15.40
2023-05-09T03:26:56.152Z,15.40
2023-05-09T03:29:29.211Z,15.40
2023-05-09T03:32:02.035Z,15.40
2023-05-09T03:34:37.195Z,15.40
2023-05-09T03:37:09.424Z,15.50
2023-05-09T03:39:42.123Z,15.50
2023-05-09T03:42:14.570Z,15.50
2023-05-09T03:44:47.121Z,15.50
2023-05-09T03:47:19.270Z,15.50
2023-05-09T03:49:54.479Z,15.40
2023-05-09T03:52:26.616Z,15.50
2023-05-09T03:54:59.166Z,15.50
2023-05-09T03:57:31.344Z,15.50
2023-05-09T04:00:06.334Z,15.50
2023-05-09T04:02:39.124Z,15.50
2023-05-09T04:05:14.547Z,15.50
2023-05-09T04:07:47.274Z,15.50
2023-05-09T04:10:20.244Z,15.50
2023-05-09T04:12:52.560Z,15.60
2023-05-09T04:15:24.750Z,15.60
2023-05-09T04:17:57.493Z,15.60
2023-05-09T04:20:32.397Z,15.60
2023-05-09T04:23:05.036Z,15.60
2023-05-09T04:25:37.888Z,15.60
2023-05-09T04:28:10.445Z,15.60
2023-05-09T04:30:43.426Z,15.60
2023-05-09T04:33:17.240Z,15.60
2023-05-09T04:35:52.013Z,15.60
2023-05-09T04:38:25.267Z,15.60
2023-05-09T04:40:58.739Z,15.70
2023-05-09T04:43:34.258Z,15.70
2023-05-09T04:46:09.582Z,15.70
2023-05-09T04:48:42.943Z,15.70
2023-05-09T04:51:18.119Z,15.70
2023-05-09T04:53:52.297Z,15.70
2023-05-09T04:56:24.635Z,15.70
2023-05-09T04:58:56.774Z,15.70
2023-05-09T05:01:31.913Z,15.70
2023-05-09T05:04:05.712Z,15.70
2023-05-09T05:06:40.584Z,15.70
2023-05-09T05:09:23.251Z,15.70
2023-05-09T05:12:01.666Z,15.70
2023-05-09T05:14:44.120Z,15.70
2023-05-09T05:17:20.832Z,15.70
2023-05-09T05:19:53.914Z,15.70
2023-05-09T05:22:31.572Z,15.80
2023-05-09T05:25:17.507Z,15.80
2023-05-09T05:27:50.570Z,15.80
2023-05-09T05:30:22.865Z,15.80
2023-05-09T05:32:55.667Z,15.80
2023-05-09T05:35:31.050Z,15.80
2023-05-09T05:38:08.546Z,15.90
2023-05-09T05:40:40.589Z,15.90
2023-05-09T05:43:13.093Z,15.90
2023-05-09T05:45:46.706Z,15.90
2023-05-09T05:48:18.883Z,15.90
2023-05-09T05:50:55.219Z,15.90
2023-05-09T05:53:34.865Z,16.00
2023-05-09T05:56:08.704Z,15.90
2023-05-09T05:58:41.534Z,16.00
2023-05-09T06:01:21.351Z,16.00
2023-05-09T06:04:00.748Z,16.10
2023-05-09T06:06:34.157Z,16.10
2023-05-09T06:09:09.446Z,16.10
2023-05-09T06:11:42.311Z,16.20
2023-05-09T06:14:15.556Z,16.20
2023-05-09T06:16:47.968Z,16.20
2023-05-09T06:19:20.337Z,16.20
2023-05-09T06:21:52.650Z,16.30
2023-05-09T06:24:35.800Z,16.30
2023-05-09T06:27:12.159Z,16.30
2023-05-09T06:29:45.906Z,16.40
2023-05-09T06:32:22.031Z,16.40
2023-05-09T06:34:55.081Z,16.40
2023-05-09T06:37:31.733Z,16.40
2023-05-09T06:40:10.862Z,16.40
2023-05-09T06:42:43.793Z,16.50
2023-05-09T06:45:18.193Z,16.50
2023-05-09T06:47:51.081Z,16.60
2023-05-09T06:50:23.552Z,16.60
2023-05-09T06:53:04.367Z,16.60
2023-05-09T06:55:42.672Z,16.70
2023-05-09T06:58:15.592Z,16.80
2023-05-09T07:00:48.433Z,16.80
2023-05-09T07:03:23.395Z,16.90
2023-05-09T07:05:57.582Z,16.90
2023-05-09T07:08:29.819Z,16.90
2023-05-09T07:11:06.674Z,17.00
2023-05-09T07:13:41.893Z,17.00
2023-05-09T07:16:15.050Z,17.10
2023-05-09T07:18:49.129Z,17.20
2023-05-09T07:21:21.321Z,17.20
2023-05-09T07:24:35.302Z,17.20
2023-05-09T07:27:12.919Z,17.30
2023-05-09T07:29:45.338Z,17.30
2023-05-09T07:32:23.937Z,17.40
2023-05-09T07:34:59.199Z,17.50
2023-05-09T07:37:32.146Z,17.50
2023-05-09T07:40:06.890Z,17.60
2023-05-09T07:42:46.105Z,17.70
2023-05-09T07:45:23.912Z,17.80
2023-05-09T07:47:58.475Z,17.80
2023-05-09T07:50:31.078Z,17.90
2023-05-09T07:53:06.797Z,17.90
2023-05-09T07:55:40.148Z,18.00
2023-05-09T07:58:17.179Z,18.00
2023-05-09T08:00:50.003Z,18.10
2023-05-09T08:03:31.348Z,18.10
2023-05-09T08:06:04.434Z,18.10
2023-05-09T08:08:39.135Z,18.20
2023-05-09T08:11:14.395Z,18.20
2023-05-09T08:13:57.014Z,18.30
2023-05-09T08:16:37.982Z,18.30
2023-05-09T08:19:21.244Z,18.40
2023-05-09T08:21:57.032Z,18.40
2023-05-09T08:24:30.021Z,18.50
2023-05-09T08:27:02.220Z,18.60
2023-05-09T08:29:41.302Z,18.70
2023-05-09T08:32:15.526Z,18.70
2023-05-09T08:34:48.068Z,18.80
2023-05-09T08:37:22.611Z,18.90
2023-05-09T08:39:54.784Z,18.90
2023-05-09T08:42:45.600Z,19.00
2023-05-09T08:45:29.852Z,19.10
2023-05-09T08:48:10.201Z,19.20
2023-05-09T08:50:51.998Z,19.30
2023-05-09T08:53:39.000Z,19.30
2023-05-09T08:56:11.467Z,19.40
2023-05-09T08:58:44.449Z,19.50
2023-05-09T09:01:20.161Z,19.60
2023-05-09T09:03:56.088Z,19.60
2023-05-09T09:06:36.529Z,19.70
2023-05-09T09:09:09.544Z,19.70
2023-05-09T09:11:43.266Z,19.80
2023-05-09T09:14:28.025Z,19.90
2023-05-09T09:17:07.676Z,20.00
2023-05-09T09:19:45.407Z,20.00
2023-05-09T09:22:23.005Z,20.10
2023-05-09T09:25:05.922Z,20.20
2023-05-09T09:27:42.267Z,20.30
2023-05-09T09:30:17.137Z,20.30
2023-05-09T09:32:52.324Z,20.40
2023-05-09T09:35:28.034Z,20.50
2023-05-09T09:38:00.449Z,20.50
2023-05-09T09:40:33.852Z,20.60
2023-05-09T09:43:11.460Z,20.60
2023-05-09T09:45:49.403Z,20.70
2023-05-09T09:48:34.055Z,20.80
2023-05-09T09:51:15.049Z,20.80
2023-05-09T09:53:53.966Z,20.90
2023-05-09T09:56:40.038Z,20.90
2023-05-09T09:59:16.571Z,21.00
2023-05-09T10:02:01.583Z,21.10
2023-05-09T10:04:44.023Z,21.10
2023-05-09T10:07:25.894Z,21.20
2023-05-09T10:10:06.073Z,21.20
2023-05-09T10:12:46.027Z,21.20
2023-05-09T10:15:38.472Z,21.30
2023-05-09T10:18:23.628Z,21.40
2023-05-09T10:21:08.785Z,21.50
2023-05-09T10:23:49.028Z,21.50
2023-05-09T10:26:28.332Z,21.60
2023-05-09T10:29:10.617Z,21.70
2023-05-09T10:31:50.565Z,21.70
2023-05-09T10:34:27.935Z,21.80
2023-05-09T10:37:03.197Z,21.90
2023-05-09T10:39:36.562Z,21.90
2023-05-09T10:42:14.173Z,22.00
2023-05-09T10:44:58.880Z,22.10
2023-05-09T10:47:41.889Z,22.10
2023-05-09T10:50:18.758Z,22.20
2023-05-09T10:53:19.006Z,22.20
2023-05-09T10:55:54.135Z,22.30
2023-05-09T10:58:28.142Z,22.40
2023-05-09T11:01:04.984Z,22.50
2023-05-09T11:03:55.136Z,22.60
2023-05-09T11:06:49.330Z,22.70
2023-05-09T11:09:33.134Z,22.80
2023-05-09T11:12:11.203Z,22.90
2023-05-09T11:14:51.879Z,23.00
2023-05-09T11:17:34.345Z,23.00
2023-05-09T11:20:10.360Z,23.10
2023-05-09T11:22:48.465Z,23.10
2023-05-09T11:25:32.265Z,23.20
2023-05-09T11:28:05.171Z,23.20
2023-05-09T11:30:41.254Z,23.30
2023-05-09T11:33:24.231Z,23.30
2023-05-09T11:36:36.224Z,23.40
2023-05-09T11:39:10.988Z,23.50
2023-05-09T11:41:47.896Z,23.60
2023-05-09T11:44:22.058Z,23.60
2023-05-09T11:47:01.936Z,23.80
2023-05-09T11:49:40.075Z,23.80
2023-05-09T11:52:12.306Z,23.90
2023-05-09T11:54:44.560Z,24.00
2023-05-09T11:57:28.748Z,24.10
2023-05-09T12:00:07.152Z,24.20
2023-05-09T12:02:50.438Z,24.30
2023-05-09T12:05:29.506Z,24.30
2023-05-09T12:08:12.211Z,24.40
2023-05-09T12:10:53.450Z,24.50
2023-05-09T12:13:53.294Z,24.60
2023-05-09T12:16:30.656Z,24.70
2023-05-09T12:19:05.235Z,24.70
2023-05-09T12:21:40.993Z,24.80
2023-05-09T12:24:21.620Z,25.00
2023-05-09T12:26:56.892Z,25.00
2023-05-09T12:29:38.558Z,25.10
2023-05-09T12:32:11.034Z,25.10
2023-05-09T12:34:49.242Z,25.20
2023-05-09T12:37:39.020Z,25.20
2023-05-09T12:40:13.237Z,25.30
2023-05-09T12:42:47.523Z,25.50
2023-05-09T12:45:34.000Z,25.70
2023-05-09T12:48:06.569Z,25.90
2023-05-09T12:50:46.681Z,26.00
2023-05-09T12:53:28.224Z,26.00
2023-05-09T12:56:09.818Z,26.10
2023-05-09T12:58:48.912Z,26.20
2023-05-09T13:01:31.078Z,26.40
2023-05-09T13:04:04.639Z,26.60
2023-05-09T13:06:51.180Z,26.70
2023-05-09T13:09:24.816Z,26.90
2023-05-09T13:11:57.636Z,26.90
2023-05-09T13:14:33.373Z,27.00
2023-05-09T13:17:10.040Z,27.00
2023-05-09T13:19:42.201Z,27.00
2023-05-09T13:22:20.389Z,27.10
2023-05-09T13:25:03.621Z,27.20
2023-05-09T13:27:36.144Z,27.30
2023-05-09T13:30:09.431Z,27.40
2023-05-09T13:32:46.179Z,27.60
2023-05-09T13:35:23.721Z,27.80
2023-05-09T13:37:59.026Z,28.10
2023-05-09T13:40:32.746Z,28.30
2023-05-09T13:43:07.000Z,28.50
2023-05-09T13:45:39.376Z,28.70
2023-05-09T13:48:14.187Z,28.80
2023-05-09T13:50:54.394Z,28.80
2023-05-09T13:53:35.812Z,28.80
2023-05-09T13:56:13.150Z,28.80
2023-05-09T13:58:46.779Z,28.80
2023-05-09T14:01:19.826Z,28.80
2023-05-09T14:03:55.667Z,28.70
2023-05-09T14:06:29.203Z,28.60
2023-05-09T14:09:02.151Z,28.50
2023-05-09T14:11:41.841Z,28.40
2023-05-09T14:14:16.476Z,28.30
2023-05-09T14:16:52.984Z,28.00
2023-05-09T14:19:30.674Z,27.90
2023-05-09T14:22:03.110Z,27.80
2023-05-09T14:24:36.533Z,27.90
2023-05-09T14:27:12.783Z,27.90
2023-05-09T14:29:51.041Z,27.90
2023-05-09T14:32:27.439Z,27.90
2023-05-09T14:35:07.429Z,28.00
2023-05-09T14:37:41.631Z,28.10
2023-05-09T14:40:16.507Z,28.20
2023-05-09T14:42:50.779Z,28.30
2023-05-09T14:45:23.586Z,28.20
2023-05-09T14:47:58.781Z,28.00
2023-05-09T14:50:33.841Z,27.80
2023-05-09T14:53:07.186Z,27.60
2023-05-09T14:55:42.091Z,27.50
2023-05-09T14:58:16.310Z,27.50
2023-05-09T15:00:53.565Z,27.40
2023-05-09T15:03:27.869Z,27.40
2023-05-09T15:06:04.608Z,27.30
2023-05-09T15:08:39.156Z,27.30
2023-05-09T15:11:13.229Z,27.30
2023-05-09T15:13:46.828Z,27.20
2023-05-09T15:16:20.844Z,27.00
2023-05-09T15:18:56.660Z,26.90
2023-05-09T15:21:32.604Z,26.80
2023-05-09T15:24:20.643Z,26.60
2023-05-09T15:27:01.104Z,26.40
2023-05-09T15:29:33.427Z,26.20
2023-05-09T15:32:15.972Z,26.10
2023-05-09T15:35:01.348Z,25.90
2023-05-09T15:37:40.680Z,25.70
2023-05-09T15:40:16.934Z,25.30
2023-05-09T15:42:51.475Z,25.00
2023-05-09T15:45:24.716Z,24.80
2023-05-09T15:47:58.004Z,24.60
2023-05-09T15:50:30.772Z,24.30
2023-05-09T15:53:06.479Z,24.10
2023-05-09T15:55:40.223Z,23.90
2023-05-09T15:58:20.609Z,23.80
2023-05-09T16:00:55.100Z,23.70
2023-05-09T16:03:28.276Z,23.60
2023-05-09T16:06:02.734Z,23.50
2023-05-09T16:08:38.831Z,23.50
2023-05-09T16:11:11.473Z,23.30
2023-05-09T16:13:43.842Z,23.10
2023-05-09T16:16:17.703Z,22.70
2023-05-09T16:18:52.802Z,22.40
2023-05-09T16:21:29.270Z,21.90
2023-05-09T16:24:06.307Z,21.40
2023-05-09T16:26:39.430Z,21.00
2023-05-09T16:29:14.088Z,20.60
2023-05-09T16:31:46.393Z,20.30
2023-05-09T16:34:21.434Z,20.20
2023-05-09T16:36:54.353Z,20.00
2023-05-09T16:39:30.853Z,19.90
2023-05-09T16:42:06.149Z,19.80
2023-05-09T16:44:40.877Z,19.70
2023-05-09T16:47:14.169Z,19.60
2023-05-09T16:49:47.084Z,19.50
2023-05-09T16:52:20.731Z,19.40
2023-05-09T16:54:55.805Z,19.30
2023-05-09T16:57:27.957Z,19.30
2023-05-09T17:00:00.202Z,19.20
2023-05-09T17:02:32.787Z,19.10
2023-05-09T17:05:07.730Z,19.10
2023-05-09T17:07:41.986Z,19.10
2023-05-09T17:10:36.472Z,19.00
2023-05-09T17:13:11.078Z,18.90
2023-05-09T17:15:44.236Z,18.90
2023-05-09T17:18:22.034Z,18.90
2023-05-09T17:21:05.724Z,18.80
2023-05-09T17:23:38.986Z,18.80
2023-05-09T17:26:19.202Z,18.70
2023-05-09T17:28:51.829Z,18.70
2023-05-09T17:31:24.010Z,18.60
2023-05-09T17:33:57.307Z,18.60
2023-05-09T17:36:30.034Z,18.50
2023-05-09T17:39:02.976Z,18.40
2023-05-09T17:41:38.787Z,18.40
2023-05-09T17:44:12.010Z,18.40
2023-05-09T17:46:44.332Z,18.40
2023-05-09T17:49:17.035Z,18.40
2023-05-09T17:51:50.044Z,18.40
2023-05-09T17:54:22.923Z,18.40
2023-05-09T17:57:01.807Z,18.30
2023-05-09T17:59:33.972Z,18.30
2023-05-09T18:02:07.727Z,18.30
2023-05-09T18:04:41.370Z,18.20
2023-05-09T18:07:15.715Z,18.10
2023-05-09T18:09:48.572Z,18.00
2023-05-09T18:12:47.758Z,17.90
2023-05-09T18:30:19.643Z,17.10
2023-05-09T18:33:25.071Z,17.00
2023-05-09T18:38:04.096Z,17.00
2023-05-09T18:40:34.066Z,16.90
2023-05-09T18:43:41.355Z,16.90
2023-05-09T18:46:42.059Z,16.80
2023-05-09T18:49:55.967Z,16.80
2023-05-09T18:52:37.471Z,16.70
2023-05-09T18:56:13.730Z,16.70
2023-05-09T18:59:36.602Z,16.60
2023-05-09T19:03:08.947Z,16.50
2023-05-09T19:06:17.474Z,16.40
2023-05-09T19:12:06.230Z,16.20
2023-05-09T19:18:54.828Z,16.10
2023-05-09T19:21:47.595Z,16.10
2023-05-09T19:24:57.852Z,16.00
2023-05-09T19:28:11.762Z,16.20
2023-05-09T19:31:32.935Z,16.60
2023-05-09T19:35:05.338Z,17.00
2023-05-09T19:38:03.701Z,17.30
2023-05-09T19:40:57.726Z,17.60
2023-05-09T19:43:55.978Z,17.80
2023-05-09T19:46:49.334Z,18.10
2023-05-09T19:49:53.582Z,18.20
2023-05-09T19:52:37.337Z,18.40
2023-05-09T19:55:19.372Z,18.50
2023-05-09T19:57:55.972Z,18.60
2023-05-09T20:00:34.439Z,18.80
2023-05-09T20:03:07.220Z,18.90
2023-05-09T20:05:43.670Z,19.00
2023-05-09T20:08:16.779Z,19.10
2023-05-09T20:10:51.732Z,19.20
2023-05-09T20:13:24.206Z,19.20
2023-05-09T20:15:58.072Z,19.30
2023-05-09T20:18:33.686Z,19.30
2023-05-09T20:21:10.353Z,19.30
2023-05-09T20:23:44.058Z,19.30
2023-05-09T20:26:18.564Z,19.30
2023-05-09T20:28:51.755Z,19.40
2023-05-09T20:31:25.982Z,19.60
2023-05-09T20:33:59.116Z,19.70
2023-05-09T20:36:35.310Z,19.80
2023-05-09T20:39:09.197Z,19.80
2023-05-09T20:41:44.844Z,19.90
2023-05-09T20:44:18.458Z,19.90
2023-05-09T20:46:51.348Z,20.00
2023-05-09T20:49:24.907Z,20.00
2023-05-09T20:52:02.045Z,20.00
2023-05-09T20:54:34.727Z,19.90
2023-05-09T20:57:08.068Z,20.00
2023-05-09T20:59:41.609Z,19.90
2023-05-09T21:02:13.903Z,19.90
2023-05-09T21:04:46.148Z,20.00
2023-05-09T21:07:21.948Z,20.00
2023-05-09T21:09:55.554Z,20.10
2023-05-09T21:12:28.203Z,20.20
2023-05-09T21:15:01.749Z,20.30
2023-05-09T21:17:34.053Z,20.30
2023-05-09T21:20:09.376Z,20.40
2023-05-09T21:22:44.732Z,20.50
2023-05-09T21:25:20.926Z,20.60
2023-05-09T21:27:55.243Z,20.50
2023-05-09T21:30:31.179Z,20.20
2023-05-09T21:33:05.266Z,19.90
2023-05-09T21:35:43.976Z,19.50
2023-05-09T21:38:22.218Z,19.20
2023-05-09T21:40:55.932Z,18.90
2023-05-09T21:43:31.670Z,18.60
2023-05-09T21:46:11.760Z,18.40
2023-05-09T21:48:47.021Z,18.20
2023-05-09T21:51:23.354Z,18.00
2023-05-09T21:54:03.694Z,17.80
2023-05-09T21:56:39.230Z,17.50
2023-05-09T21:59:14.288Z,17.40
2023-05-09T22:01:48.207Z,17.20
2023-05-09T22:04:22.201Z,17.10
2023-05-09T22:06:56.061Z,16.90
2023-05-09T22:09:33.188Z,16.80
2023-05-09T22:12:11.366Z,16.70
2023-05-09T22:14:58.639Z,16.60
2023-05-09T22:17:35.355Z,16.50
2023-05-09T22:20:11.154Z,16.50
2023-05-09T22:22:45.664Z,16.40
2023-05-09T22:25:25.367Z,16.30
2023-05-09T22:28:15.508Z,16.30
2023-05-09T22:30:48.474Z,16.20
2023-05-09T22:33:21.344Z,16.20
2023-05-09T22:35:54.023Z,16.10
2023-05-09T22:38:28.852Z,16.00
2023-05-09T22:41:03.868Z,16.00
2023-05-09T22:43:39.101Z,15.90
2023-05-09T22:46:13.970Z,15.90
2023-05-09T22:48:46.885Z,15.80
2023-05-09T22:51:20.494Z,15.80
2023-05-09T22:53:53.072Z,15.80
2023-05-09T22:56:32.639Z,15.70
2023-05-09T22:59:13.140Z,15.60
2023-05-09T23:01:49.127Z,15.60
2023-05-09T23:04:24.816Z,15.50
2023-05-09T23:07:02.446Z,15.40
2023-05-09T23:09:35.502Z,15.40
2023-05-09T23:12:10.877Z,15.40
2023-05-09T23:14:43.845Z,15.30
2023-05-09T23:17:17.172Z,15.30
2023-05-09T23:19:50.403Z,15.30
2023-05-09T23:22:23.055Z,15.30
2023-05-09T23:24:56.097Z,15.20
2023-05-09T23:27:35.012Z,15.20
2023-05-09T23:30:09.907Z,15.20
2023-05-09T23:32:42.620Z,15.10
2023-05-09T23:35:25.572Z,15.10
2023-05-09T23:38:03.822Z,15.00
2023-05-09T23:40:47.147Z,14.90
2023-05-09T23:43:29.262Z,14.90
2023-05-09T23:46:06.683Z,14.80
2023-05-09T23:48:44.471Z,14.80
2023-05-09T23:51:28.563Z,14.70
2023-05-09T23:54:14.341Z,14.60
2023-05-09T23:57:03.150Z,14.60
2023-05-09T23:59:55.209Z,14.50
